Terminal Aerodrome Forecast
Issued by NWS Shreveport, LA

Home | Current Version | Previous Version | Text Only | Print | Product List | Glossary On
Versions: 1 2 3 4 5 6 7 8 9 10 11 12 13 14 15 16 17 18 19 20 21
000
FTUS44 KSHV 281723
TAFELD
TAF
KELD 281723Z 2818/2918 18012KT P6SM BKN025
     FM281930 18010G18KT P6SM SCT035
     FM290300 16011G17KT P6SM OVC020
     FM290700 15012G20KT P6SM OVC015=

USA.gov is the U.S. government's official web portal to all federal, state and local government web resources and services.